createdAt,value
2023-12-19T00:00:41.153Z,9.75
2023-12-19T00:01:52.663Z,12.43
2023-12-19T00:03:04.364Z,16.15
2023-12-19T00:04:16.141Z,16.77
2023-12-19T00:05:27.685Z,12.43
2023-12-19T00:06:39.242Z,15.23
2023-12-19T00:07:50.822Z,13.02
2023-12-19T00:09:02.334Z,16.75
2023-12-19T00:10:14.022Z,12.13
2023-12-19T00:11:25.572Z,9.15
2023-12-19T00:12:38.546Z,10.55
2023-12-19T00:13:50.117Z,13.30
2023-12-19T00:15:01.724Z,13.75
2023-12-19T00:16:13.344Z,16.50
2023-12-19T00:17:24.922Z,16.58
2023-12-19T00:18:36.617Z,14.85
2023-12-19T00:19:48.341Z,20.98
2023-12-19T00:21:01.491Z,24.52
2023-12-19T00:22:15.230Z,24.75
2023-12-19T00:23:31.838Z,23.92
2023-12-19T00:24:43.353Z,17.75
2023-12-19T00:25:54.845Z,19.33
2023-12-19T00:27:06.429Z,19.02
2023-12-19T00:28:17.960Z,23.60
2023-12-19T00:29:29.443Z,19.23
2023-12-19T00:30:40.994Z,19.38
2023-12-19T00:31:52.969Z,17.95
2023-12-19T00:33:04.825Z,18.67
2023-12-19T00:34:17.914Z,20.63
2023-12-19T00:35:29.551Z,19.42
2023-12-19T00:36:41.501Z,13.02
2023-12-19T00:37:53.073Z,15.95
2023-12-19T00:39:05.651Z,16.77
2023-12-19T00:40:17.370Z,18.85
2023-12-19T00:41:28.905Z,13.30
2023-12-19T00:42:40.837Z,16.63
2023-12-19T00:43:52.545Z,17.40
2023-12-19T00:45:04.210Z,19.08
2023-12-19T00:46:15.775Z,15.98
2023-12-19T00:47:27.333Z,19.88
2023-12-19T00:48:39.324Z,16.90
2023-12-19T00:49:51.356Z,17.48
2023-12-19T00:51:05.544Z,14.68
2023-12-19T00:52:16.998Z,17.27
2023-12-19T00:53:28.562Z,13.07
2023-12-19T00:54:40.161Z,13.98
2023-12-19T00:55:51.667Z,18.02
2023-12-19T00:57:03.249Z,14.75
2023-12-19T00:58:14.751Z,16.55
2023-12-19T00:59:26.244Z,12.90
2023-12-19T01:00:38.100Z,15.15
2023-12-19T01:01:49.720Z,13.60
2023-12-19T01:03:01.326Z,11.48
2023-12-19T01:04:13.018Z,9.77
2023-12-19T01:05:24.621Z,14.13
2023-12-19T01:06:39.460Z,11.80
2023-12-19T01:07:51.886Z,13.27
2023-12-19T01:09:03.709Z,11.32
2023-12-19T01:10:15.302Z,15.43
2023-12-19T01:11:26.838Z,14.32
2023-12-19T01:12:38.414Z,9.07
2023-12-19T01:13:50.020Z,13.35
2023-12-19T01:15:01.666Z,11.88
2023-12-19T01:16:14.882Z,11.70
2023-12-19T01:17:26.498Z,12.23
2023-12-19T01:18:38.746Z,11.18
2023-12-19T01:19:50.389Z,12.05
2023-12-19T01:21:02.070Z,11.88
2023-12-19T01:22:13.934Z,10.43
2023-12-19T01:23:26.816Z,9.20
2023-12-19T01:24:38.404Z,9.75
2023-12-19T01:25:50.137Z,5.72
2023-12-19T01:27:01.635Z,9.30
2023-12-19T01:28:13.500Z,13.60
2023-12-19T01:29:25.113Z,9.27
2023-12-19T01:30:37.064Z,8.93
2023-12-19T01:31:49.037Z,10.05
2023-12-19T01:33:00.593Z,11.90
2023-12-19T01:34:12.750Z,11.43
2023-12-19T01:35:24.580Z,8.93
2023-12-19T01:36:36.201Z,16.50
2023-12-19T01:37:47.892Z,10.90
2023-12-19T01:38:59.429Z,9.88
2023-12-19T01:40:11.078Z,8.35
2023-12-19T01:41:25.352Z,18.05
2023-12-19T01:42:36.932Z,11.35
2023-12-19T01:43:49.107Z,9.25
2023-12-19T01:45:06.671Z,14.63
2023-12-19T01:46:21.184Z,14.30
2023-12-19T01:47:32.690Z,11.75
2023-12-19T01:48:44.583Z,14.32
2023-12-19T01:49:56.227Z,9.30
2023-12-19T01:51:07.960Z,9.85
2023-12-19T01:52:19.436Z,10.90
2023-12-19T01:53:31.024Z,12.00
2023-12-19T01:54:42.532Z,6.75
2023-12-19T01:55:55.169Z,8.27
2023-12-19T01:57:07.070Z,8.23
2023-12-19T01:58:19.146Z,8.23
2023-12-19T01:59:30.807Z,7.95
2023-12-19T02:00:42.485Z,13.15
2023-12-19T02:01:55.456Z,8.43
2023-12-19T02:03:07.109Z,8.00
2023-12-19T02:04:18.918Z,7.70
2023-12-19T02:05:30.514Z,11.05
2023-12-19T02:06:42.076Z,6.45
2023-12-19T02:07:53.725Z,8.25
2023-12-19T02:09:06.953Z,8.75
2023-12-19T02:10:18.481Z,5.22
2023-12-19T02:11:30.351Z,8.40
2023-12-19T02:12:45.434Z,7.07
2023-12-19T02:13:59.618Z,5.38
2023-12-19T02:15:11.548Z,8.57
2023-12-19T02:16:23.736Z,7.57
2023-12-19T02:17:35.263Z,8.23
2023-12-19T02:19:00.315Z,13.10
2023-12-19T02:20:11.940Z,11.02
2023-12-19T02:21:23.445Z,9.68
2023-12-19T02:22:34.961Z,11.05
2023-12-19T02:23:46.468Z,7.38
2023-12-19T02:24:58.576Z,11.88
2023-12-19T02:26:10.257Z,13.50
2023-12-19T02:27:22.761Z,19.02
2023-12-19T02:28:34.268Z,18.67
2023-12-19T02:29:45.920Z,14.27
2023-12-19T02:30:57.544Z,14.73
2023-12-19T02:32:09.010Z,15.40
2023-12-19T02:33:20.896Z,12.32
2023-12-19T02:34:32.635Z,8.73
2023-12-19T02:35:44.162Z,9.20
2023-12-19T02:36:55.792Z,10.18
2023-12-19T02:38:07.326Z,7.68
2023-12-19T02:39:19.085Z,10.63
2023-12-19T02:40:31.315Z,10.13
2023-12-19T02:41:42.950Z,9.73
2023-12-19T02:42:54.607Z,11.50
2023-12-19T02:44:06.388Z,17.08
2023-12-19T02:45:17.921Z,16.30
2023-12-19T02:46:29.490Z,15.88
2023-12-19T02:47:41.186Z,14.82
2023-12-19T02:48:53.043Z,9.98
2023-12-19T02:50:04.966Z,13.07
2023-12-19T02:51:18.437Z,13.38
2023-12-19T02:52:29.905Z,13.23
2023-12-19T02:53:41.456Z,12.63
2023-12-19T02:54:52.959Z,17.13
2023-12-19T02:56:04.694Z,12.80
2023-12-19T02:57:16.232Z,10.50
2023-12-19T02:58:28.210Z,13.48
2023-12-19T02:59:39.746Z,11.00
2023-12-19T03:00:51.370Z,13.68
2023-12-19T03:02:02.941Z,14.43
2023-12-19T03:03:14.587Z,14.68
2023-12-19T03:04:26.266Z,13.18
2023-12-19T03:05:37.946Z,9.95
2023-12-19T03:06:49.481Z,14.48
2023-12-19T03:08:00.975Z,13.88
2023-12-19T03:09:12.538Z,9.05
2023-12-19T03:10:24.081Z,11.10
2023-12-19T03:11:38.375Z,15.63
2023-12-19T03:12:49.928Z,13.90
2023-12-19T03:14:01.444Z,11.63
2023-12-19T03:15:12.946Z,11.10
2023-12-19T03:16:24.545Z,9.32
2023-12-19T03:17:36.086Z,12.02
2023-12-19T03:18:47.811Z,11.48
2023-12-19T03:19:59.548Z,9.15
2023-12-19T03:21:11.107Z,11.73
2023-12-19T03:22:22.587Z,7.60
2023-12-19T03:23:34.098Z,12.30
2023-12-19T03:24:46.754Z,8.10
2023-12-19T03:25:58.317Z,10.60
2023-12-19T03:27:09.836Z,16.25
2023-12-19T03:28:21.327Z,14.55
2023-12-19T03:29:34.118Z,13.75
2023-12-19T03:30:45.734Z,9.85
2023-12-19T03:31:57.299Z,8.15
2023-12-19T03:33:08.868Z,10.38
2023-12-19T03:34:20.537Z,12.93
2023-12-19T03:35:32.339Z,11.00
2023-12-19T03:36:43.824Z,14.75
2023-12-19T03:37:55.371Z,9.80
2023-12-19T03:39:06.971Z,14.38
2023-12-19T03:40:18.475Z,14.27
2023-12-19T03:41:29.937Z,15.13
2023-12-19T03:42:41.836Z,25.08
2023-12-19T03:43:53.649Z,21.40
2023-12-19T03:45:05.928Z,18.10
2023-12-19T03:46:17.472Z,18.83
2023-12-19T03:47:29.047Z,12.75
2023-12-19T03:48:40.937Z,13.85
2023-12-19T03:49:52.607Z,16.42
2023-12-19T03:51:04.539Z,18.85
2023-12-19T03:52:16.325Z,19.38
2023-12-19T03:53:28.201Z,30.77
2023-12-19T03:54:40.011Z,164.18
2023-12-19T03:55:51.579Z,195.90
2023-12-19T03:57:03.161Z,202.65
2023-12-19T03:58:14.687Z,155.00
2023-12-19T03:59:26.231Z,99.03
2023-12-19T04:00:38.695Z,126.05
2023-12-19T04:01:52.766Z,88.00
2023-12-19T04:03:04.479Z,62.13
2023-12-19T04:04:18.477Z,16.58
2023-12-19T04:05:30.169Z,12.02
2023-12-19T04:06:43.639Z,16.10
2023-12-19T04:07:55.177Z,19.80
2023-12-19T04:09:07.314Z,14.50
2023-12-19T04:10:18.813Z,26.85
2023-12-19T04:11:30.357Z,25.52
2023-12-19T04:12:42.170Z,21.58
2023-12-19T04:13:53.828Z,23.73
2023-12-19T04:15:05.544Z,20.30
2023-12-19T04:16:17.057Z,14.23
2023-12-19T04:17:28.785Z,25.98
2023-12-19T04:18:40.451Z,26.63
2023-12-19T04:19:52.008Z,21.42
2023-12-19T04:21:03.726Z,18.25
2023-12-19T04:22:15.434Z,20.17
2023-12-19T04:23:27.035Z,31.80
2023-12-19T04:24:38.534Z,21.80
2023-12-19T04:25:50.144Z,38.92
2023-12-19T04:27:01.702Z,21.67
2023-12-19T04:28:13.155Z,28.95
2023-12-19T04:29:24.619Z,26.73
2023-12-19T04:30:36.165Z,19.90
2023-12-19T04:31:47.946Z,15.38
2023-12-19T04:32:59.668Z,16.90
2023-12-19T04:34:11.288Z,14.35
2023-12-19T04:35:22.904Z,24.80
2023-12-19T04:36:34.469Z,18.70
2023-12-19T04:37:46.058Z,23.15
2023-12-19T04:38:57.612Z,20.98
2023-12-19T04:40:09.305Z,20.42
2023-12-19T04:41:20.836Z,29.85
2023-12-19T04:42:32.352Z,27.55
2023-12-19T04:43:43.936Z,33.95
2023-12-19T04:44:55.466Z,29.52
2023-12-19T04:46:09.381Z,26.02
2023-12-19T04:47:20.916Z,27.77
2023-12-19T04:48:34.705Z,31.95
2023-12-19T04:49:47.028Z,33.33
2023-12-19T04:50:58.839Z,29.23
2023-12-19T04:52:10.400Z,32.65
2023-12-19T04:53:22.019Z,44.50
2023-12-19T04:54:33.579Z,38.13
2023-12-19T04:55:45.099Z,79.82
2023-12-19T04:56:56.624Z,92.38
2023-12-19T04:58:08.190Z,104.40
2023-12-19T04:59:19.874Z,72.45
2023-12-19T05:00:31.412Z,58.50
2023-12-19T05:01:43.346Z,49.63
2023-12-19T05:02:57.414Z,44.22
2023-12-19T05:04:10.690Z,42.47
2023-12-19T05:05:22.356Z,72.53
2023-12-19T05:06:35.013Z,63.38
2023-12-19T05:07:46.607Z,66.80
2023-12-19T05:08:58.186Z,50.03
2023-12-19T05:10:09.838Z,64.57
2023-12-19T05:11:21.472Z,77.60
2023-12-19T05:12:33.030Z,88.75
2023-12-19T05:13:44.706Z,64.65
2023-12-19T05:14:56.226Z,37.83
2023-12-19T05:16:14.452Z,34.92
2023-12-19T05:17:26.072Z,42.67
2023-12-19T05:18:38.993Z,29.80
2023-12-19T05:19:53.895Z,37.88
2023-12-19T05:21:10.223Z,30.60
2023-12-19T05:22:21.856Z,34.00
2023-12-19T05:23:33.359Z,43.95
2023-12-19T05:24:44.999Z,37.13
2023-12-19T05:25:56.490Z,25.05
2023-12-19T05:27:08.035Z,39.67
2023-12-19T05:28:19.606Z,38.08
2023-12-19T05:29:31.174Z,33.45
2023-12-19T05:30:45.194Z,28.98
2023-12-19T05:31:56.756Z,39.28
2023-12-19T05:33:08.220Z,43.38
2023-12-19T05:34:19.825Z,33.45
2023-12-19T05:35:31.918Z,36.67
2023-12-19T05:36:48.010Z,53.25
2023-12-19T05:37:59.943Z,58.92
2023-12-19T05:39:11.420Z,62.97
2023-12-19T05:40:22.899Z,67.72
2023-12-19T05:41:34.679Z,129.98
2023-12-19T05:42:46.437Z,106.22
2023-12-19T05:44:02.311Z,94.90
2023-12-19T05:45:14.322Z,88.95
2023-12-19T05:46:25.845Z,83.13
2023-12-19T05:47:37.874Z,89.43
2023-12-19T05:48:49.537Z,67.00
2023-12-19T05:50:01.354Z,96.93
2023-12-19T05:51:13.820Z,75.40
2023-12-19T05:52:25.342Z,63.60
2023-12-19T05:53:37.587Z,85.22
2023-12-19T05:54:49.084Z,59.15
2023-12-19T05:56:00.670Z,58.15
2023-12-19T05:57:12.296Z,57.97
2023-12-19T05:58:23.805Z,98.57
2023-12-19T05:59:35.374Z,54.63
2023-12-19T06:00:48.395Z,48.10
2023-12-19T06:01:59.949Z,50.05
2023-12-19T06:03:11.586Z,39.22
2023-12-19T06:04:23.226Z,46.65
2023-12-19T06:05:34.875Z,89.18
2023-12-19T06:06:46.410Z,76.78
2023-12-19T06:08:03.661Z,113.68
2023-12-19T06:09:15.207Z,82.60
2023-12-19T06:10:26.725Z,65.53
2023-12-19T06:11:38.384Z,142.32
2023-12-19T06:12:49.885Z,202.00
2023-12-19T06:14:01.383Z,140.07
2023-12-19T06:15:14.457Z,148.63
2023-12-19T06:16:26.129Z,145.43
2023-12-19T06:17:40.285Z,93.78
2023-12-19T06:18:51.960Z,80.35
2023-12-19T06:20:04.371Z,107.10
2023-12-19T06:21:16.037Z,129.85
2023-12-19T06:22:27.522Z,131.52
2023-12-19T06:23:39.088Z,117.70
2023-12-19T06:24:51.608Z,128.45
2023-12-19T06:26:03.121Z,96.97
2023-12-19T06:27:17.334Z,119.60
2023-12-19T06:28:28.975Z,110.25
2023-12-19T06:29:40.498Z,93.30
2023-12-19T06:30:52.166Z,102.38
2023-12-19T06:32:03.939Z,104.25
2023-12-19T06:33:15.517Z,98.10
2023-12-19T06:34:30.273Z,105.20
2023-12-19T06:35:42.449Z,106.47
2023-12-19T06:36:54.039Z,92.95
2023-12-19T06:38:06.677Z,87.75
2023-12-19T06:39:18.401Z,86.75
2023-12-19T06:40:29.988Z,90.63
2023-12-19T06:41:41.589Z,97.38
2023-12-19T06:42:53.268Z,87.95
2023-12-19T06:44:04.900Z,78.22
2023-12-19T06:45:16.516Z,86.82
2023-12-19T06:46:28.070Z,92.28
2023-12-19T06:47:39.648Z,94.72
2023-12-19T06:48:51.430Z,114.78
2023-12-19T06:50:05.065Z,119.15
2023-12-19T06:51:28.792Z,84.57
2023-12-19T06:52:40.431Z,81.18
2023-12-19T06:53:52.840Z,75.47
2023-12-19T06:55:05.215Z,51.03
2023-12-19T06:56:18.423Z,95.85
2023-12-19T06:57:29.974Z,94.78
2023-12-19T06:58:41.529Z,66.10
2023-12-19T06:59:53.092Z,73.10
2023-12-19T07:01:04.770Z,52.05
2023-12-19T07:02:16.370Z,43.78
2023-12-19T07:03:27.917Z,47.38
2023-12-19T07:04:39.510Z,43.95
2023-12-19T07:05:53.159Z,39.83
2023-12-19T07:07:04.923Z,33.42
2023-12-19T07:08:16.525Z,30.30
2023-12-19T07:09:28.568Z,44.88
2023-12-19T07:10:40.081Z,31.95
2023-12-19T07:11:51.634Z,22.20
2023-12-19T07:13:03.215Z,18.90
2023-12-19T07:14:15.030Z,22.88
2023-12-19T07:15:26.563Z,22.88
2023-12-19T07:16:38.132Z,17.85
2023-12-19T07:17:49.838Z,15.45
2023-12-19T07:19:02.186Z,15.82
2023-12-19T07:20:13.799Z,17.20
2023-12-19T07:21:25.927Z,15.20
2023-12-19T07:22:37.581Z,13.98
2023-12-19T07:23:49.743Z,17.10
2023-12-19T07:25:01.271Z,23.40
2023-12-19T07:26:22.642Z,20.40
2023-12-19T07:27:37.923Z,25.08
2023-12-19T07:28:51.334Z,20.00
2023-12-19T07:30:02.967Z,14.45
2023-12-19T07:31:30.707Z,18.77
2023-12-19T07:32:42.723Z,16.85
2023-12-19T07:33:57.988Z,16.63
2023-12-19T07:35:11.034Z,38.80
2023-12-19T07:36:22.821Z,18.23
2023-12-19T07:37:36.478Z,32.42
2023-12-19T07:38:49.285Z,24.55
2023-12-19T07:40:00.877Z,25.08
2023-12-19T07:41:12.459Z,33.72
2023-12-19T07:42:24.198Z,41.33
2023-12-19T07:43:36.668Z,32.72
2023-12-19T07:44:48.202Z,38.65
2023-12-19T07:46:00.304Z,30.50
2023-12-19T07:47:11.967Z,46.33
2023-12-19T07:48:24.048Z,32.95
2023-12-19T07:49:35.760Z,37.67
2023-12-19T07:50:47.351Z,40.50
2023-12-19T07:51:58.900Z,40.20
2023-12-19T07:53:10.441Z,40.08
2023-12-19T07:54:21.974Z,52.90
2023-12-19T07:55:33.546Z,67.75
2023-12-19T07:56:45.061Z,47.35
2023-12-19T07:57:56.784Z,42.30
2023-12-19T07:59:08.307Z,50.65
2023-12-19T08:00:20.016Z,46.30
2023-12-19T08:01:31.594Z,43.85
2023-12-19T08:02:44.110Z,54.25
2023-12-19T08:03:55.883Z,45.75
2023-12-19T08:05:11.294Z,44.65
2023-12-19T08:06:22.911Z,38.97
2023-12-19T08:07:34.401Z,39.40
2023-12-19T08:08:46.016Z,45.95
2023-12-19T08:09:57.542Z,46.17
2023-12-19T08:11:09.954Z,39.65
2023-12-19T08:12:21.535Z,45.38
2023-12-19T08:13:33.076Z,40.45
2023-12-19T08:14:44.582Z,50.15
2023-12-19T08:15:56.091Z,40.55
2023-12-19T08:17:07.716Z,46.03
2023-12-19T08:18:19.419Z,50.35
2023-12-19T08:19:31.184Z,52.33
2023-12-19T08:20:43.431Z,43.20
2023-12-19T08:21:55.573Z,54.05
2023-12-19T08:23:08.482Z,44.15
2023-12-19T08:24:20.052Z,51.05
2023-12-19T08:25:31.566Z,53.30
2023-12-19T08:26:50.565Z,47.10
2023-12-19T08:28:05.498Z,46.40
2023-12-19T08:29:17.588Z,41.70
2023-12-19T08:30:29.215Z,56.63
2023-12-19T08:31:40.869Z,52.58
2023-12-19T08:32:52.611Z,55.30
2023-12-19T08:34:05.282Z,53.17
2023-12-19T08:35:17.273Z,81.22
2023-12-19T08:36:33.979Z,57.13
2023-12-19T08:37:46.834Z,63.15
2023-12-19T08:38:58.284Z,60.88
2023-12-19T08:40:10.265Z,64.82
2023-12-19T08:41:21.792Z,62.47
2023-12-19T08:42:33.354Z,59.47
2023-12-19T08:43:44.900Z,61.78
2023-12-19T08:44:57.208Z,58.70
2023-12-19T08:46:08.834Z,56.83
2023-12-19T08:47:20.348Z,55.88
2023-12-19T08:48:31.997Z,63.33
2023-12-19T08:49:47.613Z,55.70
2023-12-19T08:50:59.134Z,44.78
2023-12-19T08:52:11.087Z,48.97
2023-12-19T08:53:22.586Z,45.42
2023-12-19T08:54:34.156Z,53.03
2023-12-19T08:55:47.978Z,44.78
2023-12-19T08:57:00.504Z,46.40
2023-12-19T08:58:12.193Z,45.47
2023-12-19T08:59:23.831Z,42.05
2023-12-19T09:00:36.720Z,36.78
2023-12-19T09:01:48.387Z,32.72
2023-12-19T09:02:59.983Z,23.67
2023-12-19T09:04:11.888Z,18.98
2023-12-19T09:05:23.759Z,21.35
2023-12-19T09:06:35.360Z,23.13
2023-12-19T09:07:50.357Z,17.90
2023-12-19T09:09:02.626Z,14.23
2023-12-19T09:10:14.956Z,17.15
2023-12-19T09:11:27.776Z,17.58
2023-12-19T09:12:41.097Z,19.58
2023-12-19T09:13:52.873Z,21.90
2023-12-19T09:15:04.989Z,17.92
2023-12-19T09:16:16.720Z,17.30
2023-12-19T09:17:28.337Z,20.90
2023-12-19T09:18:40.097Z,22.73
2023-12-19T09:19:51.749Z,45.67
2023-12-19T09:21:03.320Z,32.65
2023-12-19T09:22:14.846Z,29.75
2023-12-19T09:23:26.401Z,32.78
2023-12-19T09:24:37.944Z,42.38
2023-12-19T09:25:49.435Z,34.95
2023-12-19T09:27:00.979Z,41.72
2023-12-19T09:28:12.549Z,38.30
2023-12-19T09:29:27.134Z,43.72
2023-12-19T09:30:38.810Z,49.47
2023-12-19T09:31:50.464Z,39.33
2023-12-19T09:33:02.018Z,39.38
2023-12-19T09:34:15.343Z,43.63
2023-12-19T09:35:27.223Z,30.50
2023-12-19T09:36:46.315Z,34.58
2023-12-19T09:38:04.642Z,27.88
2023-12-19T09:39:16.338Z,25.23
2023-12-19T09:40:31.450Z,25.10
2023-12-19T09:41:43.465Z,35.70
2023-12-19T09:42:55.059Z,32.60
2023-12-19T09:44:08.056Z,41.40
2023-12-19T09:45:19.656Z,42.03
2023-12-19T09:46:34.787Z,30.75
2023-12-19T09:47:51.371Z,30.02
2023-12-19T09:49:03.539Z,28.05
2023-12-19T09:50:15.767Z,27.77
2023-12-19T09:51:33.546Z,26.38
2023-12-19T09:52:47.049Z,29.10
2023-12-19T09:54:00.722Z,36.28
2023-12-19T09:55:12.521Z,24.83
2023-12-19T09:56:24.930Z,26.88
2023-12-19T09:57:37.264Z,24.15
2023-12-19T09:58:50.015Z,27.92
2023-12-19T10:00:08.177Z,26.30
2023-12-19T10:01:19.790Z,29.20
2023-12-19T10:02:31.481Z,39.63
2023-12-19T10:03:43.522Z,40.30
2023-12-19T10:04:56.682Z,27.50
2023-12-19T10:06:08.516Z,37.40
2023-12-19T10:07:20.224Z,36.38
2023-12-19T10:08:33.900Z,29.02
2023-12-19T10:09:51.681Z,24.92
2023-12-19T10:11:04.597Z,25.70
2023-12-19T10:12:16.104Z,24.27
2023-12-19T10:13:34.249Z,17.08
2023-12-19T10:14:48.093Z,18.13
2023-12-19T10:16:29.009Z,14.73
2023-12-19T10:17:32.655Z,17.55
2023-12-19T10:18:46.608Z,15.32
2023-12-19T10:20:10.855Z,22.05
2023-12-19T10:21:23.236Z,31.92
2023-12-19T10:22:35.307Z,18.92
2023-12-19T10:23:48.024Z,21.15
2023-12-19T10:25:02.440Z,21.25
2023-12-19T10:26:14.151Z,16.80
2023-12-19T10:27:25.987Z,12.77
2023-12-19T10:28:38.637Z,16.05
2023-12-19T10:29:50.678Z,12.95
2023-12-19T10:31:12.433Z,9.95
2023-12-19T10:32:24.023Z,10.23
2023-12-19T10:33:42.887Z,13.82
2023-12-19T10:34:56.479Z,10.57
2023-12-19T10:36:08.062Z,16.08
2023-12-19T10:37:20.564Z,20.92
2023-12-19T10:38:45.409Z,16.02
2023-12-19T10:40:11.151Z,25.13
2023-12-19T10:41:25.860Z,18.98
2023-12-19T10:42:37.790Z,20.33
2023-12-19T10:43:51.348Z,24.40
2023-12-19T10:45:06.831Z,24.90
2023-12-19T10:46:19.924Z,17.92
2023-12-19T10:47:31.502Z,21.75
2023-12-19T10:48:43.237Z,19.05
2023-12-19T10:49:54.929Z,19.15
2023-12-19T10:51:07.741Z,21.77
2023-12-19T10:52:20.426Z,20.10
2023-12-19T10:53:32.161Z,18.92
2023-12-19T10:54:44.596Z,17.67
2023-12-19T10:55:58.308Z,15.18
2023-12-19T10:57:15.607Z,18.20
2023-12-19T10:58:27.066Z,22.73
2023-12-19T10:59:44.708Z,17.20
2023-12-19T11:00:56.884Z,17.55
2023-12-19T11:02:21.331Z,16.23
2023-12-19T11:03:37.376Z,21.27
2023-12-19T11:04:52.823Z,25.25
2023-12-19T11:06:09.268Z,20.33
2023-12-19T11:07:23.175Z,24.10
2023-12-19T11:08:36.047Z,17.35
2023-12-19T11:09:48.801Z,25.80
2023-12-19T11:11:04.727Z,21.38
2023-12-19T11:12:17.038Z,21.63
2023-12-19T11:13:28.724Z,22.30
2023-12-19T11:14:41.233Z,27.17
2023-12-19T11:15:57.216Z,28.77
2023-12-19T11:17:18.339Z,30.15
2023-12-19T11:18:36.721Z,19.75
2023-12-19T11:19:48.371Z,19.58
2023-12-19T11:21:02.562Z,20.42
2023-12-19T11:22:29.543Z,20.00
2023-12-19T11:23:53.803Z,16.45
2023-12-19T11:25:30.794Z,20.27
2023-12-19T11:26:46.711Z,26.90
2023-12-19T11:28:04.584Z,19.10
2023-12-19T11:29:34.578Z,18.23
2023-12-19T11:31:17.344Z,22.33
2023-12-19T11:32:29.232Z,15.45
2023-12-19T11:33:41.484Z,25.00
2023-12-19T11:34:53.296Z,24.45
2023-12-19T11:36:13.443Z,23.85
2023-12-19T11:37:27.052Z,28.92
2023-12-19T11:38:39.347Z,28.42
2023-12-19T11:39:50.925Z,29.05
2023-12-19T11:41:05.395Z,27.45
2023-12-19T11:42:35.786Z,22.55
2023-12-19T11:43:50.357Z,33.30
2023-12-19T11:45:02.097Z,24.70
2023-12-19T11:46:17.458Z,38.03
2023-12-19T11:47:29.783Z,34.88
2023-12-19T11:48:43.291Z,35.55
2023-12-19T11:49:55.073Z,28.65
2023-12-19T11:51:10.523Z,42.00
2023-12-19T11:52:34.753Z,35.53
2023-12-19T11:53:46.297Z,48.90
2023-12-19T11:54:57.826Z,44.08
2023-12-19T11:56:10.591Z,17.27
2023-12-19T11:57:24.201Z,20.33
2023-12-19T11:58:45.578Z,20.80
2023-12-19T11:59:57.255Z,17.60
2023-12-19T12:01:10.492Z,21.85
2023-12-19T12:02:31.184Z,27.10
2023-12-19T12:03:43.009Z,17.52
2023-12-19T12:05:03.790Z,18.08
2023-12-19T12:06:19.360Z,20.15
2023-12-19T12:07:31.690Z,21.35
2023-12-19T12:08:52.261Z,18.77
2023-12-19T12:10:07.518Z,13.38
2023-12-19T12:11:19.108Z,22.75
2023-12-19T12:12:33.639Z,15.88
2023-12-19T12:13:59.803Z,13.18
2023-12-19T12:15:15.589Z,15.27
2023-12-19T12:16:37.218Z,12.95
2023-12-19T12:17:49.839Z,16.77
2023-12-19T12:19:09.743Z,15.77
2023-12-19T12:20:25.897Z,21.23
2023-12-19T12:21:37.444Z,14.73
2023-12-19T12:22:48.951Z,18.67
2023-12-19T12:24:00.498Z,17.52
2023-12-19T12:25:12.056Z,21.83
2023-12-19T12:26:23.738Z,21.73
2023-12-19T12:27:35.336Z,26.48
2023-12-19T12:28:50.408Z,21.77
2023-12-19T12:30:01.956Z,23.27
2023-12-19T12:31:14.508Z,21.25
2023-12-19T12:32:27.123Z,21.17
2023-12-19T12:33:38.906Z,28.08
2023-12-19T12:34:50.571Z,23.50
2023-12-19T12:36:08.845Z,20.45
2023-12-19T12:37:20.660Z,20.90
2023-12-19T12:38:32.223Z,22.98
2023-12-19T12:39:44.116Z,23.35
2023-12-19T12:40:55.932Z,24.30
2023-12-19T12:42:08.139Z,22.02
2023-12-19T12:43:28.435Z,19.15
2023-12-19T12:44:41.448Z,22.38
2023-12-19T12:46:02.976Z,26.63
2023-12-19T12:47:24.352Z,26.63
2023-12-19T12:48:36.936Z,24.20
2023-12-19T12:49:48.660Z,23.15
2023-12-19T12:51:00.611Z,23.45
2023-12-19T12:52:14.297Z,22.92
2023-12-19T12:53:25.893Z,18.45
2023-12-19T12:54:39.778Z,19.08
2023-12-19T12:56:05.458Z,17.92
2023-12-19T12:57:17.100Z,21.73
2023-12-19T12:58:28.582Z,17.88
2023-12-19T12:59:40.055Z,21.60
2023-12-19T13:00:51.631Z,15.85
2023-12-19T13:02:03.329Z,15.70
2023-12-19T13:03:14.890Z,13.98
2023-12-19T13:04:26.382Z,15.05
2023-12-19T13:05:38.153Z,16.85
2023-12-19T13:06:51.436Z,17.88
2023-12-19T13:08:03.233Z,18.48
2023-12-19T13:09:15.885Z,12.65
2023-12-19T13:10:27.453Z,20.80
2023-12-19T13:11:38.929Z,34.40
2023-12-19T13:12:50.584Z,45.00
2023-12-19T13:14:02.105Z,32.60
2023-12-19T13:15:15.264Z,27.08
2023-12-19T13:16:27.606Z,21.58
2023-12-19T13:17:39.246Z,22.42
2023-12-19T13:18:50.947Z,25.17
2023-12-19T13:20:04.476Z,24.05
2023-12-19T13:21:16.039Z,20.35
2023-12-19T13:22:27.499Z,25.15
2023-12-19T13:23:40.020Z,20.33
2023-12-19T13:24:51.531Z,20.58
2023-12-19T13:26:03.562Z,31.70
2023-12-19T13:27:16.266Z,52.55
2023-12-19T13:28:27.914Z,35.90
2023-12-19T13:29:39.455Z,36.95
2023-12-19T13:30:51.093Z,36.50
2023-12-19T13:32:05.088Z,27.90
2023-12-19T13:33:16.725Z,29.38
2023-12-19T13:34:28.909Z,27.33
2023-12-19T13:35:40.799Z,25.45
2023-12-19T13:36:52.327Z,20.30
2023-12-19T13:38:04.033Z,25.48
2023-12-19T13:39:21.550Z,19.35
2023-12-19T13:40:33.396Z,19.83
2023-12-19T13:41:44.970Z,16.55
2023-12-19T13:43:00.048Z,27.58
2023-12-19T13:44:11.626Z,21.13
2023-12-19T13:45:24.458Z,26.15
2023-12-19T13:46:35.940Z,38.10
2023-12-19T13:47:47.747Z,32.95
2023-12-19T13:48:59.637Z,35.50
2023-12-19T13:50:11.301Z,25.13
2023-12-19T13:51:22.761Z,25.33
2023-12-19T13:52:34.386Z,20.30
2023-12-19T13:53:47.398Z,16.30
2023-12-19T13:54:59.052Z,21.75
2023-12-19T13:56:10.733Z,19.17
2023-12-19T13:57:23.244Z,17.92
2023-12-19T13:58:34.789Z,18.48
2023-12-19T13:59:46.314Z,17.63
2023-12-19T14:00:57.934Z,15.23
2023-12-19T14:02:12.133Z,15.73
2023-12-19T14:03:24.936Z,16.00
2023-12-19T14:04:37.042Z,14.63
2023-12-19T14:05:48.656Z,20.08
2023-12-19T14:07:00.491Z,25.10
2023-12-19T14:08:12.458Z,27.83
2023-12-19T14:09:24.039Z,25.00
2023-12-19T14:10:35.602Z,37.22
2023-12-19T14:11:47.339Z,39.50
2023-12-19T14:13:02.427Z,36.72
2023-12-19T14:14:14.342Z,33.42
2023-12-19T14:15:25.805Z,29.20
2023-12-19T14:16:37.327Z,24.17
2023-12-19T14:17:49.399Z,36.03
2023-12-19T14:19:01.384Z,31.98
2023-12-19T14:20:13.614Z,33.22
2023-12-19T14:21:25.232Z,33.75
2023-12-19T14:22:36.723Z,21.55
2023-12-19T14:23:49.853Z,30.70
2023-12-19T14:25:01.576Z,25.75
2023-12-19T14:26:14.002Z,19.48
2023-12-19T14:27:25.543Z,19.50
2023-12-19T14:28:37.546Z,20.67
2023-12-19T14:29:49.209Z,19.73
2023-12-19T14:31:01.003Z,14.75
2023-12-19T14:32:12.644Z,24.05
2023-12-19T14:33:24.273Z,23.88
2023-12-19T14:34:36.031Z,28.27
2023-12-19T14:35:48.738Z,27.75
2023-12-19T14:37:02.253Z,33.38
2023-12-19T14:38:14.285Z,35.10
2023-12-19T14:39:26.920Z,32.92
2023-12-19T14:40:38.579Z,22.05
2023-12-19T14:41:50.066Z,27.75
2023-12-19T14:43:01.873Z,21.00
2023-12-19T14:44:13.622Z,31.90
2023-12-19T14:45:25.196Z,29.88
2023-12-19T14:46:36.728Z,16.80
2023-12-19T14:47:48.584Z,16.83
2023-12-19T14:49:00.636Z,17.98
2023-12-19T14:50:13.384Z,27.25
2023-12-19T14:51:25.127Z,17.67
2023-12-19T14:52:36.655Z,39.33
2023-12-19T14:53:48.178Z,33.45
2023-12-19T14:54:59.718Z,44.28
2023-12-19T14:56:11.483Z,34.70
2023-12-19T14:57:26.392Z,27.33
2023-12-19T14:58:38.513Z,25.40
2023-12-19T14:59:50.036Z,18.02
2023-12-19T15:01:01.747Z,19.40
2023-12-19T15:02:13.358Z,20.25
2023-12-19T15:03:24.880Z,24.48
2023-12-19T15:04:38.939Z,25.45
2023-12-19T15:05:50.571Z,21.15
2023-12-19T15:07:04.854Z,17.52
2023-12-19T15:08:17.839Z,19.90
2023-12-19T15:09:29.774Z,26.30
2023-12-19T15:10:41.565Z,14.73
2023-12-19T15:11:53.105Z,21.45
2023-12-19T15:13:04.892Z,16.88
2023-12-19T15:14:16.803Z,13.32
2023-12-19T15:15:28.394Z,14.43
2023-12-19T15:16:39.896Z,11.80
2023-12-19T15:17:51.700Z,13.23
2023-12-19T15:19:03.377Z,15.63
2023-12-19T15:20:15.163Z,12.00
2023-12-19T15:21:26.886Z,10.90
2023-12-19T15:22:38.618Z,18.40
2023-12-19T15:23:50.617Z,9.10
2023-12-19T15:25:02.390Z,10.68
2023-12-19T15:26:14.034Z,8.35
2023-12-19T15:27:25.515Z,6.28
2023-12-19T15:28:37.046Z,12.23
2023-12-19T15:29:48.548Z,5.85
2023-12-19T15:31:01.260Z,5.75
2023-12-19T15:32:12.894Z,9.13
2023-12-19T15:33:24.377Z,5.97
2023-12-19T15:34:36.188Z,8.20
2023-12-19T15:35:48.920Z,10.95
2023-12-19T15:37:00.455Z,9.73
2023-12-19T15:38:13.779Z,13.63